Map

Track Data

SID SEASON NUMBER BASIN SUBBASIN NAME ISO_TIME NATURE LAT LON WMO_WIND WMO_PRES WMO_AGENCY TRACK_TYPE DIST2LAND LANDFALL IFLAG USA_AGENCY USA_ATCF_ID USA_LAT USA_LON USA_RECORD USA_STATUS USA_WIND USA_PRES USA_SSHS USA_R34_NE USA_R34_SE USA_R34_SW USA_R34_NW USA_R50_NE USA_R50_SE USA_R50_SW USA_R50_NW USA_R64_NE USA_R64_SE USA_R64_SW USA_R64_NW USA_POCI USA_ROCI USA_RMW USA_EYE TOKYO_LAT TOKYO_LON TOKYO_GRADE TOKYO_WIND TOKYO_PRES TOKYO_R50_DIR TOKYO_R50_LONG TOKYO_R50_SHORT TOKYO_R30_DIR TOKYO_R30_LONG TOKYO_R30_SHORT TOKYO_LAND CMA_LAT CMA_LON CMA_CAT CMA_WIND CMA_PRES HKO_LAT HKO_LON HKO_CAT HKO_WIND HKO_PRES NEWDELHI_LAT NEWDELHI_LON NEWDELHI_GRADE NEWDELHI_WIND NEWDELHI_PRES NEWDELHI_CI NEWDELHI_DP NEWDELHI_POCI REUNION_LAT REUNION_LON REUNION_TYPE REUNION_WIND REUNION_PRES REUNION_TNUM REUNION_CI REUNION_RMW REUNION_R34_NE REUNION_R34_SE REUNION_R34_SW REUNION_R34_NW REUNION_R50_NE REUNION_R50_SE REUNION_R50_SW REUNION_R50_NW REUNION_R64_NE REUNION_R64_SE REUNION_R64_SW REUNION_R64_NW BOM_LAT BOM_LON BOM_TYPE BOM_WIND BOM_PRES BOM_TNUM BOM_CI BOM_RMW BOM_R34_NE BOM_R34_SE BOM_R34_SW BOM_R34_NW BOM_R50_NE BOM_R50_SE BOM_R50_SW BOM_R50_NW BOM_R64_NE BOM_R64_SE BOM_R64_SW BOM_R64_NW BOM_ROCI BOM_POCI BOM_EYE BOM_POS_METHOD BOM_PRES_METHOD NADI_LAT NADI_LON NADI_CAT NADI_WIND NADI_PRES WELLINGTON_LAT WELLINGTON_LON WELLINGTON_WIND WELLINGTON_PRES DS824_LAT DS824_LON DS824_STAGE DS824_WIND DS824_PRES TD9636_LAT TD9636_LON TD9636_STAGE TD9636_WIND TD9636_PRES TD9635_LAT TD9635_LON TD9635_WIND TD9635_PRES TD9635_ROCI NEUMANN_LAT NEUMANN_LON NEUMANN_CLASS NEUMANN_WIND NEUMANN_PRES MLC_LAT MLC_LON MLC_CLASS MLC_WIND MLC_PRES USA_GUST BOM_GUST BOM_GUST_PER REUNION_GUST REUNION_GUST_PER USA_SEAHGT USA_SEARAD_NE USA_SEARAD_SE USA_SEARAD_SW USA_SEARAD_NW STORM_SPEED STORM_DIR
2004001S16124 2004 1 SI WA KEN 2004-01-01 06:00:00 TS -16.4000 124.200 main 0 0 O___________O_ jtwc_sh SH082004 -16.4000 124.200 TD 15 1006 -1 -16.4000 124.200 TC 15 11 271
2004001S16124 2004 1 SI WA KEN 2004-01-01 09:00:00 TS -16.3878 123.640 main 10 10 P___________P_ SH082004 -16.3878 123.640 TD 17 1005 -1 -16.3878 123.640 TC 17 11 270
2004001S16124 2004 1 SI WA KEN 2004-01-01 12:00:00 TS -16.4000 123.100 main 15 11 O___________O_ jtwc_sh SH082004 -16.4000 123.100 TD 20 1004 -1 -16.4000 123.100 TC 20 10 266
2004001S16124 2004 1 SI WA KEN 2004-01-01 15:00:00 TS -16.4498 122.593 main 30 24 P___________P_ SH082004 -16.4498 122.593 TD 22 1003 -1 -16.4498 122.593 TC 22 10 264
2004001S16124 2004 1 SI WA KEN 2004-01-01 18:00:00 TS -16.5000 122.100 main 61 61 O___________O_ jtwc_sh SH082004 -16.5000 122.100 TD 25 1002 -1 1008 120 50 -16.5000 122.100 TC 25 10 267
2004001S16124 2004 1 SI WA KEN 2004-01-01 21:00:00 TS -16.5074 121.592 main 100 100 P___________P_ SH082004 -16.5074 121.592 TD 27 1001 -1 1008 120 50 -16.5074 121.592 TC 27 10 270
2004001S16124 2004 1 SI WA KEN 2004-01-02 00:00:00 TS -16.5000 121.100 main 144 144 O___________O_ jtwc_sh SH082004 -16.5000 121.100 TD 30 1000 -1 1008 120 50 -16.5000 121.100 TC 30 9 270
2004001S16124 2004 1 SI WA KEN 2004-01-02 03:00:00 TS -16.5074 120.635 main 192 192 P___________P_ SH082004 -16.5074 120.635 TD 32 998 -1 1008 120 50 -16.5074 120.635 TC 32 9 270
2004001S16124 2004 1 SI WA KEN 2004-01-02 06:00:00 TS -16.5000 120.200 main 230 230 O___________O_ jtwc_sh SH082004 -16.5000 120.200 TS 35 997 0 1008 120 50 -16.5000 120.200 TC 35 8 274
2004001S16124 2004 1 SI WA KEN 2004-01-02 09:00:00 TS -16.4499 119.792 main 274 274 P___________P_ SH082004 -16.4499 119.792 TS 35 997 0 1008 120 50 -16.4499 119.792 TC 35 8 277
2004001S16124 2004 1 SI WA KEN 2004-01-02 12:00:00 TS -16.4000 119.400 main 314 314 O___________O_ jtwc_sh SH082004 -16.4000 119.400 TS 35 997 0 1008 120 50 -16.4000 119.400 TC 35 8 274
2004001S16124 2004 1 SI WA KEN 2004-01-02 15:00:00 TS -16.3924 119.000 main 355 355 P___________P_ SH082004 -16.3924 119.000 TS 35 997 0 1007 120 50 -16.3924 119.000 TC 35 8 270
2004001S16124 2004 1 SI WA KEN 2004-01-02 18:00:00 TS -16.4000 118.600 main 395 395 O___________O_ jtwc_sh SH082004 -16.4000 118.600 TS 35 997 0 1006 120 50 -16.4000 118.600 TC 35 8 269
2004001S16124 2004 1 SI WA KEN 2004-01-02 21:00:00 TS -16.4000 118.185 main 424 424 P___________P_ SH082004 -16.4000 118.185 TS 35 997 0 1006 120 47 -16.4000 118.185 TC 35 8 270
2004001S16124 2004 1 SI WA KEN 2004-01-03 00:00:00 TS -16.4000 117.800 main 436 436 O___________O_ jtwc_sh SH082004 -16.4000 117.800 TS 35 997 0 1006 120 45 -16.4000 117.800 TC 35 7 272
2004001S16124 2004 1 SI WA KEN 2004-01-03 03:00:00 TS -16.3774 117.470 main 447 447 P___________P_ SH082004 -16.3774 117.470 TS 35 997 0 1006 120 45 -16.3774 117.470 TC 35 6 270
2004001S16124 2004 1 SI WA KEN 2004-01-03 06:00:00 TS -16.4000 117.200 main 457 448 O___________O_ jtwc_sh SH082004 -16.4000 117.200 TS 35 997 0 1006 120 45 -16.4000 117.200 TC 35 5 254
2004001S16124 2004 1 SI WA KEN 2004-01-03 09:00:00 TS -16.5125 116.978 main 451 436 P___________P_ SH082004 -16.5125 116.978 TS 35 997 0 1006 120 45 -16.5125 116.978 TC 35 5 232
2004001S16124 2004 1 SI WA KEN 2004-01-03 12:00:00 TS -16.7000 116.800 main 436 413 O___________O_ jtwc_sh SH082004 -16.7000 116.800 TS 35 997 0 1006 120 45 -16.7000 116.800 TC 35 5 217
2004001S16124 2004 1 SI WA KEN 2004-01-03 15:00:00 TS -16.9350 116.642 main 414 380 P___________P_ SH082004 -16.9350 116.642 TS 35 997 0 1006 120 45 -16.9350 116.642 TC 35 6 210
2004001S16124 2004 1 SI WA KEN 2004-01-03 18:00:00 TS -17.2000 116.500 main 380 348 O___________O_ jtwc_sh SH082004 -17.2000 116.500 TS 35 997 0 1006 120 45 -17.2000 116.500 TC 35 6 206
2004001S16124 2004 1 SI WA KEN 2004-01-03 21:00:00 TS -17.4724 116.365 main 348 328 P___________P_ SH082004 -17.4724 116.365 TS 35 997 0 1006 120 45 -17.4724 116.365 TC 35 6 210
2004001S16124 2004 1 SI WA KEN 2004-01-04 00:00:00 TS -17.7000 116.200 main 328 319 O___________O_ jtwc_sh SH082004 -17.7000 116.200 TS 35 997 0 1006 120 45 -17.7000 116.200 TC 35 5 228
2004001S16124 2004 1 SI WA KEN 2004-01-04 03:00:00 TS -17.8225 115.957 main 321 313 P___________P_ SH082004 -17.8225 115.957 TS 35 997 0 1006 120 45 -17.8225 115.957 TC 35 5 247
2004001S16124 2004 1 SI WA KEN 2004-01-04 06:00:00 TS -17.9000 115.700 main 319 316 O___________O_ jtwc_sh SH082004 -17.9000 115.700 TS 35 997 0 1006 120 45 -17.9000 115.700 TC 35 5 250
2004001S16124 2004 1 SI WA KEN 2004-01-04 09:00:00 TS -17.9850 115.477 main 316 311 P___________P_ SH082004 -17.9850 115.477 TS 35 997 0 1006 120 45 -17.9850 115.477 TC 35 4 242
2004001S16124 2004 1 SI WA KEN 2004-01-04 12:00:00 TS -18.1000 115.300 main 315 301 O___________O_ jtwc_sh SH082004 -18.1000 115.300 TS 35 997 0 1006 120 45 -18.1000 115.300 TC 35 4 225
2004001S16124 2004 1 SI WA KEN 2004-01-04 15:00:00 TS -18.2775 115.170 main 301 288 P___________P_ SH082004 -18.2775 115.170 TS 35 997 0 1006 120 45 -18.2775 115.170 TC 35 4 205
2004001S16124 2004 1 SI WA KEN 2004-01-04 18:00:00 TS -18.5000 115.100 main 288 270 O___________O_ jtwc_sh SH082004 -18.5000 115.100 TS 35 997 0 1006 120 45 -18.5000 115.100 TC 35 5 188
2004001S16124 2004 1 SI WA KEN 2004-01-04 21:00:00 TS -18.7275 115.092 main 270 241 P___________P_ SH082004 -18.7275 115.092 TS 35 997 0 1006 120 45 -18.7275 115.092 TC 35 5 178
2004001S16124 2004 1 SI WA KEN 2004-01-05 00:00:00 TS -19.0000 115.100 main 241 212 O___________O_ jtwc_sh SH082004 -19.0000 115.100 TS 35 997 0 1006 120 45 -19.0000 115.100 TC 35 6 182
2004001S16124 2004 1 SI WA KEN 2004-01-05 03:00:00 TS -19.3425 115.072 main 212 182 P___________P_ SH082004 -19.3425 115.072 TS 35 997 0 1006 120 45 -19.3425 115.072 TC 35 7 188
2004001S16124 2004 1 SI WA KEN 2004-01-05 06:00:00 TS -19.7000 115.000 main 182 161 O___________O_ jtwc_sh SH082004 -19.7000 115.000 TS 35 997 0 1006 120 45 -19.7000 115.000 TC 35 7 196
2004001S16124 2004 1 SI WA KEN 2004-01-05 09:00:00 TS -20.0075 114.872 main 161 152 P___________P_ SH082004 -20.0075 114.872 TS 32 998 -1 1006 120 45 -20.0075 114.872 TC 32 7 205
2004001S16124 2004 1 SI WA KEN 2004-01-05 12:00:00 TS -20.3000 114.700 main 152 126 O___________O_ jtwc_sh SH082004 -20.3000 114.700 TD 30 1000 -1 1006 120 45 -20.3000 114.700 TC 30 7 209
2004001S16124 2004 1 SI WA KEN 2004-01-05 15:00:00 TS -20.6225 114.515 main 129 105 P___________P_ SH082004 -20.6225 114.515 TD 27 1001 -1 1006 120 42 -20.6225 114.515 TC 27 7 212
2004001S16124 2004 1 SI WA KEN 2004-01-05 18:00:00 TS -20.9000 114.300 main 105 89 O___________O_ jtwc_sh SH082004 -20.9000 114.300 TD 25 1002 -1 1006 120 40 -20.9000 114.300 TC 25 6 223
2004001S16124 2004 1 SI WA KEN 2004-01-05 21:00:00 TS -21.0950 114.050 main 89 78 P___________P_ SH082004 -21.0950 114.050 TD 25 1002 -1 1006 110 40 -21.0950 114.050 TC 25 6 237
2004001S16124 2004 1 SI WA KEN 2004-01-06 00:00:00 TS -21.2000 113.800 main 80 80 O___________O_ jtwc_sh SH082004 -21.2000 113.800 TD 25 1002 -1 1006 100 40 -21.2000 113.800 TC 25 4 254
2004001S16124 2004 1 SI WA KEN 2004-01-06 03:00:00 TS -21.2149 113.592 main 88 88 P___________P_ SH082004 -21.2149 113.592 TD 25 1002 -1 -21.2149 113.592 TC 25 4 270
2004001S16124 2004 1 SI WA KEN 2004-01-06 06:00:00 TS -21.2000 113.400 main 99 99 O___________O_ jtwc_sh SH082004 -21.2000 113.400 TD 25 1002 -1 -21.2000 113.400 TC 25 4 267
2004001S16124 2004 1 SI WA KEN 2004-01-06 09:00:00 TS -21.2326 113.203 main 113 113 P___________P_ SH082004 -21.2326 113.203 TD 22 1003 -1 -21.2326 113.203 TC 22 4 255
2004001S16124 2004 1 SI WA KEN 2004-01-06 12:00:00 TS -21.3000 113.000 main 123 O___________O_ jtwc_sh SH082004 -21.3000 113.000 TD 20 1004 -1 -21.3000 113.000 TC 20 4 250

About IBTrACS Database

This database is a web-friendly format of International Best Track Archive for Climate Stewardship (IBTrACS), a global best track data archive curated by NOAA dating back to 1842.

Updated: 2021-10-21